sensor_id;sensor_type;location;lat;lon;timestamp;P1;durP1;ratioP1;P2;durP2;ratioP2
64832;SDS011;51290;45.060;38.948;2024-01-25T00:01:14;36.08;;;21.02;;
64832;SDS011;51290;45.060;38.948;2024-01-25T00:03:40;48.25;;;22.00;;
64832;SDS011;51290;45.060;38.948;2024-01-25T00:06:06;38.38;;;21.15;;
64832;SDS011;51290;45.060;38.948;2024-01-25T00:08:35;33.40;;;19.45;;
64832;SDS011;51290;45.060;38.948;2024-01-25T00:11:01;37.53;;;22.10;;
64832;SDS011;51290;45.060;38.948;2024-01-25T00:13:28;37.58;;;20.08;;
64832;SDS011;51290;45.060;38.948;2024-01-25T00:15:54;40.67;;;22.40;;
64832;SDS011;51290;45.060;38.948;2024-01-25T00:18:20;40.55;;;21.60;;
64832;SDS011;51290;45.060;38.948;2024-01-25T00:20:46;37.33;;;20.70;;
64832;SDS011;51290;45.060;38.948;2024-01-25T00:23:12;40.88;;;20.02;;
64832;SDS011;51290;45.060;38.948;2024-01-25T00:25:39;34.75;;;19.92;;
64832;SDS011;51290;45.060;38.948;2024-01-25T00:28:05;37.03;;;20.85;;
64832;SDS011;51290;45.060;38.948;2024-01-25T00:30:31;34.33;;;18.40;;
64832;SDS011;51290;45.060;38.948;2024-01-25T00:32:57;37.45;;;19.90;;
64832;SDS011;51290;45.060;38.948;2024-01-25T00:35:23;30.67;;;18.92;;
64832;SDS011;51290;45.060;38.948;2024-01-25T00:37:50;39.65;;;20.60;;
64832;SDS011;51290;45.060;38.948;2024-01-25T00:40:16;36.00;;;21.10;;
64832;SDS011;51290;45.060;38.948;2024-01-25T00:42:44;31.10;;;18.42;;
64832;SDS011;51290;45.060;38.948;2024-01-25T00:45:18;30.23;;;17.67;;
64832;SDS011;51290;45.060;38.948;2024-01-25T00:47:48;34.42;;;19.60;;
64832;SDS011;51290;45.060;38.948;2024-01-25T00:50:15;33.58;;;18.10;;
64832;SDS011;51290;45.060;38.948;2024-01-25T00:52:49;40.15;;;19.48;;
64832;SDS011;51290;45.060;38.948;2024-01-25T00:55:16;33.97;;;18.70;;
64832;SDS011;51290;45.060;38.948;2024-01-25T00:57:43;37.38;;;19.60;;
64832;SDS011;51290;45.060;38.948;2024-01-25T01:00:09;30.50;;;17.00;;
64832;SDS011;51290;45.060;38.948;2024-01-25T01:02:39;31.42;;;17.70;;
64832;SDS011;51290;45.060;38.948;2024-01-25T01:05:08;30.83;;;18.02;;
64832;SDS011;51290;45.060;38.948;2024-01-25T01:07:35;35.58;;;19.17;;
64832;SDS011;51290;45.060;38.948;2024-01-25T01:10:02;34.92;;;19.33;;
64832;SDS011;51290;45.060;38.948;2024-01-25T01:12:28;48.45;;;21.40;;
64832;SDS011;51290;45.060;38.948;2024-01-25T01:14:55;32.88;;;17.27;;
64832;SDS011;51290;45.060;38.948;2024-01-25T01:17:21;30.50;;;17.95;;
64832;SDS011;51290;45.060;38.948;2024-01-25T01:19:47;33.40;;;17.48;;
64832;SDS011;51290;45.060;38.948;2024-01-25T01:22:13;34.20;;;18.65;;
64832;SDS011;51290;45.060;38.948;2024-01-25T01:24:39;26.35;;;16.40;;
64832;SDS011;51290;45.060;38.948;2024-01-25T01:27:05;28.40;;;18.23;;
64832;SDS011;51290;45.060;38.948;2024-01-25T01:29:31;32.28;;;18.63;;
64832;SDS011;51290;45.060;38.948;2024-01-25T01:31:57;42.10;;;22.10;;
64832;SDS011;51290;45.060;38.948;2024-01-25T01:34:23;38.45;;;22.63;;
64832;SDS011;51290;45.060;38.948;2024-01-25T01:36:49;40.50;;;23.90;;
64832;SDS011;51290;45.060;38.948;2024-01-25T01:39:15;40.78;;;19.95;;
64832;SDS011;51290;45.060;38.948;2024-01-25T01:41:41;39.45;;;19.48;;
64832;SDS011;51290;45.060;38.948;2024-01-25T01:44:07;35.75;;;20.08;;
64832;SDS011;51290;45.060;38.948;2024-01-25T01:46:34;38.80;;;20.60;;
64832;SDS011;51290;45.060;38.948;2024-01-25T01:49:12;33.78;;;19.13;;
64832;SDS011;51290;45.060;38.948;2024-01-25T01:51:42;28.90;;;18.02;;
64832;SDS011;51290;45.060;38.948;2024-01-25T01:54:09;32.30;;;18.35;;
64832;SDS011;51290;45.060;38.948;2024-01-25T01:56:36;33.70;;;18.23;;
64832;SDS011;51290;45.060;38.948;2024-01-25T01:59:03;36.83;;;18.70;;
64832;SDS011;51290;45.060;38.948;2024-01-25T02:01:30;30.48;;;17.80;;
64832;SDS011;51290;45.060;38.948;2024-01-25T02:03:56;29.13;;;16.83;;
64832;SDS011;51290;45.060;38.948;2024-01-25T02:06:25;29.20;;;17.67;;
64832;SDS011;51290;45.060;38.948;2024-01-25T02:08:52;29.05;;;15.73;;
64832;SDS011;51290;45.060;38.948;2024-01-25T02:11:18;28.15;;;15.65;;
64832;SDS011;51290;45.060;38.948;2024-01-25T02:13:45;31.05;;;16.92;;
64832;SDS011;51290;45.060;38.948;2024-01-25T02:16:12;34.38;;;18.50;;
64832;SDS011;51290;45.060;38.948;2024-01-25T02:18:40;31.10;;;17.58;;
64832;SDS011;51290;45.060;38.948;2024-01-25T02:21:07;40.85;;;18.13;;
64832;SDS011;51290;45.060;38.948;2024-01-25T02:23:33;31.40;;;17.58;;
64832;SDS011;51290;45.060;38.948;2024-01-25T02:25:59;26.60;;;15.75;;
64832;SDS011;51290;45.060;38.948;2024-01-25T02:28:25;30.35;;;17.33;;
64832;SDS011;51290;45.060;38.948;2024-01-25T02:30:51;26.33;;;16.40;;
64832;SDS011;51290;45.060;38.948;2024-01-25T02:33:17;34.08;;;16.13;;
64832;SDS011;51290;45.060;38.948;2024-01-25T02:35:43;26.50;;;14.85;;
64832;SDS011;51290;45.060;38.948;2024-01-25T02:38:09;25.65;;;14.48;;
64832;SDS011;51290;45.060;38.948;2024-01-25T02:40:35;23.40;;;13.98;;
64832;SDS011;51290;45.060;38.948;2024-01-25T02:43:01;20.30;;;12.75;;
64832;SDS011;51290;45.060;38.948;2024-01-25T02:45:27;18.48;;;11.70;;
64832;SDS011;51290;45.060;38.948;2024-01-25T02:47:53;20.38;;;12.43;;
64832;SDS011;51290;45.060;38.948;2024-01-25T02:50:19;30.73;;;13.68;;
64832;SDS011;51290;45.060;38.948;2024-01-25T02:52:45;22.00;;;10.73;;
64832;SDS011;51290;45.060;38.948;2024-01-25T02:55:12;18.00;;;10.88;;
64832;SDS011;51290;45.060;38.948;2024-01-25T02:57:38;16.00;;;9.95;;
64832;SDS011;51290;45.060;38.948;2024-01-25T03:00:04;16.60;;;10.05;;
64832;SDS011;51290;45.060;38.948;2024-01-25T03:02:30;15.23;;;10.60;;
64832;SDS011;51290;45.060;38.948;2024-01-25T03:04:56;18.02;;;9.52;;
64832;SDS011;51290;45.060;38.948;2024-01-25T03:07:23;16.45;;;10.02;;
64832;SDS011;51290;45.060;38.948;2024-01-25T03:09:49;16.38;;;9.57;;
64832;SDS011;51290;45.060;38.948;2024-01-25T03:12:14;17.25;;;9.32;;
64832;SDS011;51290;45.060;38.948;2024-01-25T03:14:40;16.63;;;9.68;;
64832;SDS011;51290;45.060;38.948;2024-01-25T03:17:06;17.30;;;9.65;;
64832;SDS011;51290;45.060;38.948;2024-01-25T03:19:32;13.10;;;8.10;;
64832;SDS011;51290;45.060;38.948;2024-01-25T03:21:58;16.25;;;8.60;;
64832;SDS011;51290;45.060;38.948;2024-01-25T03:24:26;14.00;;;7.82;;
64832;SDS011;51290;45.060;38.948;2024-01-25T03:26:52;11.43;;;6.50;;
64832;SDS011;51290;45.060;38.948;2024-01-25T03:29:18;12.02;;;7.15;;
64832;SDS011;51290;45.060;38.948;2024-01-25T03:31:44;11.50;;;6.20;;
64832;SDS011;51290;45.060;38.948;2024-01-25T03:34:10;12.50;;;6.70;;
64832;SDS011;51290;45.060;38.948;2024-01-25T03:36:37;9.27;;;6.45;;
64832;SDS011;51290;45.060;38.948;2024-01-25T03:39:05;9.95;;;6.63;;
64832;SDS011;51290;45.060;38.948;2024-01-25T03:41:31;12.23;;;6.07;;
64832;SDS011;51290;45.060;38.948;2024-01-25T03:43:57;9.55;;;5.47;;
64832;SDS011;51290;45.060;38.948;2024-01-25T03:46:23;10.05;;;6.05;;
64832;SDS011;51290;45.060;38.948;2024-01-25T03:48:49;13.77;;;6.47;;
64832;SDS011;51290;45.060;38.948;2024-01-25T03:51:15;9.15;;;6.10;;
64832;SDS011;51290;45.060;38.948;2024-01-25T03:53:41;10.07;;;5.68;;
64832;SDS011;51290;45.060;38.948;2024-01-25T03:56:14;11.23;;;5.50;;
64832;SDS011;51290;45.060;38.948;2024-01-25T03:58:42;11.57;;;5.90;;
64832;SDS011;51290;45.060;38.948;2024-01-25T04:01:09;7.63;;;5.40;;
64832;SDS011;51290;45.060;38.948;2024-01-25T04:03:35;12.52;;;5.70;;
64832;SDS011;51290;45.060;38.948;2024-01-25T04:06:01;8.07;;;5.40;;
64832;SDS011;51290;45.060;38.948;2024-01-25T04:08:27;11.20;;;5.78;;
64832;SDS011;51290;45.060;38.948;2024-01-25T04:10:53;12.52;;;5.22;;
64832;SDS011;51290;45.060;38.948;2024-01-25T04:13:19;9.15;;;5.32;;
64832;SDS011;51290;45.060;38.948;2024-01-25T04:15:45;9.10;;;5.00;;
64832;SDS011;51290;45.060;38.948;2024-01-25T04:18:11;9.30;;;5.35;;
64832;SDS011;51290;45.060;38.948;2024-01-25T04:20:37;7.50;;;5.50;;
64832;SDS011;51290;45.060;38.948;2024-01-25T04:23:03;7.95;;;4.90;;
64832;SDS011;51290;45.060;38.948;2024-01-25T04:25:29;9.73;;;5.50;;
64832;SDS011;51290;45.060;38.948;2024-01-25T04:27:55;7.30;;;5.18;;
64832;SDS011;51290;45.060;38.948;2024-01-25T04:30:21;10.65;;;5.53;;
64832;SDS011;51290;45.060;38.948;2024-01-25T04:32:47;7.32;;;4.93;;
64832;SDS011;51290;45.060;38.948;2024-01-25T04:35:13;8.77;;;5.72;;
64832;SDS011;51290;45.060;38.948;2024-01-25T04:37:39;7.80;;;6.00;;
64832;SDS011;51290;45.060;38.948;2024-01-25T04:40:05;11.68;;;5.88;;
64832;SDS011;51290;45.060;38.948;2024-01-25T04:42:31;9.48;;;6.20;;
64832;SDS011;51290;45.060;38.948;2024-01-25T04:44:57;8.55;;;5.85;;
64832;SDS011;51290;45.060;38.948;2024-01-25T04:47:23;11.25;;;5.88;;
64832;SDS011;51290;45.060;38.948;2024-01-25T04:49:49;8.02;;;5.40;;
64832;SDS011;51290;45.060;38.948;2024-01-25T04:52:15;8.23;;;5.55;;
64832;SDS011;51290;45.060;38.948;2024-01-25T04:54:41;13.32;;;6.70;;
64832;SDS011;51290;45.060;38.948;2024-01-25T04:57:07;10.23;;;6.97;;
64832;SDS011;51290;45.060;38.948;2024-01-25T04:59:33;10.98;;;6.50;;
64832;SDS011;51290;45.060;38.948;2024-01-25T05:01:59;11.75;;;6.82;;
64832;SDS011;51290;45.060;38.948;2024-01-25T05:04:25;12.95;;;7.00;;
64832;SDS011;51290;45.060;38.948;2024-01-25T05:06:53;12.93;;;7.28;;
64832;SDS011;51290;45.060;38.948;2024-01-25T05:09:19;12.52;;;7.80;;
64832;SDS011;51290;45.060;38.948;2024-01-25T05:11:45;14.80;;;7.95;;
64832;SDS011;51290;45.060;38.948;2024-01-25T05:14:11;12.73;;;7.72;;
64832;SDS011;51290;45.060;38.948;2024-01-25T05:16:38;13.50;;;8.57;;
64832;SDS011;51290;45.060;38.948;2024-01-25T05:19:03;11.63;;;7.97;;
64832;SDS011;51290;45.060;38.948;2024-01-25T05:21:29;11.95;;;7.57;;
64832;SDS011;51290;45.060;38.948;2024-01-25T05:23:55;18.02;;;10.15;;
64832;SDS011;51290;45.060;38.948;2024-01-25T05:26:21;11.20;;;8.13;;
64832;SDS011;51290;45.060;38.948;2024-01-25T05:28:48;12.88;;;7.53;;
64832;SDS011;51290;45.060;38.948;2024-01-25T05:31:14;12.50;;;7.88;;
64832;SDS011;51290;45.060;38.948;2024-01-25T05:33:41;11.43;;;7.00;;
64832;SDS011;51290;45.060;38.948;2024-01-25T05:36:08;8.82;;;6.35;;
64832;SDS011;51290;45.060;38.948;2024-01-25T05:38:35;10.07;;;7.18;;
64832;SDS011;51290;45.060;38.948;2024-01-25T05:41:01;13.05;;;8.25;;
64832;SDS011;51290;45.060;38.948;2024-01-25T05:43:27;13.40;;;8.60;;
64832;SDS011;51290;45.060;38.948;2024-01-25T05:45:53;12.30;;;6.68;;
64832;SDS011;51290;45.060;38.948;2024-01-25T05:48:19;10.18;;;6.40;;
64832;SDS011;51290;45.060;38.948;2024-01-25T05:50:45;9.88;;;6.88;;
64832;SDS011;51290;45.060;38.948;2024-01-25T05:53:11;10.27;;;6.97;;
64832;SDS011;51290;45.060;38.948;2024-01-25T05:55:37;12.50;;;7.25;;
64832;SDS011;51290;45.060;38.948;2024-01-25T05:58:03;16.67;;;6.90;;
64832;SDS011;51290;45.060;38.948;2024-01-25T06:00:29;10.57;;;6.50;;
64832;SDS011;51290;45.060;38.948;2024-01-25T06:02:55;9.23;;;6.35;;
64832;SDS011;51290;45.060;38.948;2024-01-25T06:05:21;9.80;;;7.07;;
64832;SDS011;51290;45.060;38.948;2024-01-25T06:07:47;9.43;;;7.13;;
64832;SDS011;51290;45.060;38.948;2024-01-25T06:10:15;9.73;;;6.63;;
64832;SDS011;51290;45.060;38.948;2024-01-25T06:12:41;9.85;;;6.25;;
64832;SDS011;51290;45.060;38.948;2024-01-25T06:15:07;10.02;;;5.95;;
64832;SDS011;51290;45.060;38.948;2024-01-25T06:17:33;23.25;;;20.70;;
64832;SDS011;51290;45.060;38.948;2024-01-25T06:19:59;14.43;;;8.10;;
64832;SDS011;51290;45.060;38.948;2024-01-25T06:22:25;15.02;;;9.50;;
64832;SDS011;51290;45.060;38.948;2024-01-25T06:24:51;12.82;;;8.20;;
64832;SDS011;51290;45.060;38.948;2024-01-25T06:27:17;13.60;;;6.93;;
64832;SDS011;51290;45.060;38.948;2024-01-25T06:29:43;9.25;;;6.22;;
64832;SDS011;51290;45.060;38.948;2024-01-25T06:32:09;8.40;;;5.38;;
64832;SDS011;51290;45.060;38.948;2024-01-25T06:34:36;10.43;;;5.70;;
64832;SDS011;51290;45.060;38.948;2024-01-25T06:37:02;8.48;;;5.30;;
64832;SDS011;51290;45.060;38.948;2024-01-25T06:39:27;12.63;;;6.00;;
64832;SDS011;51290;45.060;38.948;2024-01-25T06:41:54;9.02;;;5.35;;
64832;SDS011;51290;45.060;38.948;2024-01-25T06:44:20;8.80;;;5.03;;
64832;SDS011;51290;45.060;38.948;2024-01-25T06:46:46;7.35;;;5.10;;
64832;SDS011;51290;45.060;38.948;2024-01-25T06:49:12;7.38;;;4.72;;
64832;SDS011;51290;45.060;38.948;2024-01-25T06:51:39;9.63;;;4.90;;
64832;SDS011;51290;45.060;38.948;2024-01-25T06:54:05;6.40;;;4.47;;
64832;SDS011;51290;45.060;38.948;2024-01-25T06:56:30;7.05;;;4.80;;
64832;SDS011;51290;45.060;38.948;2024-01-25T06:58:57;7.65;;;4.72;;
64832;SDS011;51290;45.060;38.948;2024-01-25T07:01:23;7.55;;;5.28;;
64832;SDS011;51290;45.060;38.948;2024-01-25T07:03:49;10.23;;;5.75;;
64832;SDS011;51290;45.060;38.948;2024-01-25T07:06:18;7.22;;;5.10;;
64832;SDS011;51290;45.060;38.948;2024-01-25T07:08:45;7.63;;;6.13;;
64832;SDS011;51290;45.060;38.948;2024-01-25T07:11:11;12.27;;;7.55;;
64832;SDS011;51290;45.060;38.948;2024-01-25T07:13:37;9.30;;;6.40;;
64832;SDS011;51290;45.060;38.948;2024-01-25T07:16:04;9.23;;;5.70;;
64832;SDS011;51290;45.060;38.948;2024-01-25T07:18:30;9.25;;;5.15;;
64832;SDS011;51290;45.060;38.948;2024-01-25T07:20:56;9.98;;;6.10;;
64832;SDS011;51290;45.060;38.948;2024-01-25T07:23:22;9.38;;;5.47;;
64832;SDS011;51290;45.060;38.948;2024-01-25T07:25:48;7.82;;;5.53;;
64832;SDS011;51290;45.060;38.948;2024-01-25T07:28:14;8.27;;;5.75;;
64832;SDS011;51290;45.060;38.948;2024-01-25T07:30:40;8.77;;;5.68;;
64832;SDS011;51290;45.060;38.948;2024-01-25T07:33:06;7.03;;;5.18;;
64832;SDS011;51290;45.060;38.948;2024-01-25T07:35:32;9.32;;;6.05;;
64832;SDS011;51290;45.060;38.948;2024-01-25T07:37:58;8.38;;;6.07;;
64832;SDS011;51290;45.060;38.948;2024-01-25T07:40:24;8.35;;;5.57;;
64832;SDS011;51290;45.060;38.948;2024-01-25T07:42:50;9.80;;;6.40;;
64832;SDS011;51290;45.060;38.948;2024-01-25T07:45:16;10.00;;;6.32;;
64832;SDS011;51290;45.060;38.948;2024-01-25T07:47:42;10.20;;;5.30;;
64832;SDS011;51290;45.060;38.948;2024-01-25T07:50:09;11.10;;;6.93;;
64832;SDS011;51290;45.060;38.948;2024-01-25T07:52:35;11.25;;;6.47;;
64832;SDS011;51290;45.060;38.948;2024-01-25T07:55:01;13.82;;;10.48;;
64832;SDS011;51290;45.060;38.948;2024-01-25T07:57:27;14.60;;;8.05;;
64832;SDS011;51290;45.060;38.948;2024-01-25T07:59:53;10.60;;;7.90;;
64832;SDS011;51290;45.060;38.948;2024-01-25T08:02:20;9.07;;;6.07;;
64832;SDS011;51290;45.060;38.948;2024-01-25T08:04:46;8.73;;;5.90;;
64832;SDS011;51290;45.060;38.948;2024-01-25T08:07:12;9.20;;;5.85;;
64832;SDS011;51290;45.060;38.948;2024-01-25T08:09:38;9.27;;;5.65;;
64832;SDS011;51290;45.060;38.948;2024-01-25T08:12:04;9.57;;;6.55;;
64832;SDS011;51290;45.060;38.948;2024-01-25T08:14:30;8.85;;;5.75;;
64832;SDS011;51290;45.060;38.948;2024-01-25T08:16:57;13.00;;;6.25;;
64832;SDS011;51290;45.060;38.948;2024-01-25T08:19:23;8.50;;;6.28;;
64832;SDS011;51290;45.060;38.948;2024-01-25T08:21:49;8.52;;;5.32;;
64832;SDS011;51290;45.060;38.948;2024-01-25T08:24:15;7.35;;;5.00;;
64832;SDS011;51290;45.060;38.948;2024-01-25T08:26:41;7.05;;;5.35;;
64832;SDS011;51290;45.060;38.948;2024-01-25T08:29:07;10.40;;;8.15;;
64832;SDS011;51290;45.060;38.948;2024-01-25T08:31:33;6.90;;;5.13;;
64832;SDS011;51290;45.060;38.948;2024-01-25T08:33:59;7.10;;;5.43;;
64832;SDS011;51290;45.060;38.948;2024-01-25T08:36:25;11.75;;;5.78;;
64832;SDS011;51290;45.060;38.948;2024-01-25T08:38:51;5.35;;;4.18;;
64832;SDS011;51290;45.060;38.948;2024-01-25T08:41:17;7.53;;;4.78;;
64832;SDS011;51290;45.060;38.948;2024-01-25T08:43:43;9.25;;;5.05;;
64832;SDS011;51290;45.060;38.948;2024-01-25T08:46:09;6.70;;;4.57;;
64832;SDS011;51290;45.060;38.948;2024-01-25T08:48:39;4.97;;;3.65;;
64832;SDS011;51290;45.060;38.948;2024-01-25T08:51:04;5.95;;;4.10;;
64832;SDS011;51290;45.060;38.948;2024-01-25T08:53:30;8.65;;;5.22;;
64832;SDS011;51290;45.060;38.948;2024-01-25T08:55:56;5.80;;;4.30;;
64832;SDS011;51290;45.060;38.948;2024-01-25T08:58:23;6.95;;;4.97;;
64832;SDS011;51290;45.060;38.948;2024-01-25T09:00:49;7.18;;;4.30;;
64832;SDS011;51290;45.060;38.948;2024-01-25T09:03:15;4.18;;;3.55;;
64832;SDS011;51290;45.060;38.948;2024-01-25T09:05:41;4.70;;;3.72;;
64832;SDS011;51290;45.060;38.948;2024-01-25T09:08:13;4.05;;;3.50;;
64832;SDS011;51290;45.060;38.948;2024-01-25T09:10:40;5.90;;;3.90;;
64832;SDS011;51290;45.060;38.948;2024-01-25T09:13:07;6.03;;;3.38;;
64832;SDS011;51290;45.060;38.948;2024-01-25T09:15:33;5.53;;;4.00;;
64832;SDS011;51290;45.060;38.948;2024-01-25T09:17:59;4.78;;;3.47;;
64832;SDS011;51290;45.060;38.948;2024-01-25T09:20:25;5.90;;;3.58;;
64832;SDS011;51290;45.060;38.948;2024-01-25T09:22:51;4.25;;;3.17;;
64832;SDS011;51290;45.060;38.948;2024-01-25T09:25:20;4.47;;;3.08;;
64832;SDS011;51290;45.060;38.948;2024-01-25T09:27:47;3.22;;;2.75;;
64832;SDS011;51290;45.060;38.948;2024-01-25T09:30:13;4.25;;;2.95;;
64832;SDS011;51290;45.060;38.948;2024-01-25T09:32:39;5.50;;;3.13;;
64832;SDS011;51290;45.060;38.948;2024-01-25T09:35:06;4.32;;;3.10;;
64832;SDS011;51290;45.060;38.948;2024-01-25T09:37:33;20.17;;;3.78;;
64832;SDS011;51290;45.060;38.948;2024-01-25T09:39:59;6.68;;;2.90;;
64832;SDS011;51290;45.060;38.948;2024-01-25T09:42:25;3.28;;;2.40;;
64832;SDS011;51290;45.060;38.948;2024-01-25T09:44:52;4.22;;;3.13;;
64832;SDS011;51290;45.060;38.948;2024-01-25T09:47:28;4.25;;;3.45;;
64832;SDS011;51290;45.060;38.948;2024-01-25T09:49:54;3.40;;;2.72;;
64832;SDS011;51290;45.060;38.948;2024-01-25T09:52:20;4.85;;;2.72;;
64832;SDS011;51290;45.060;38.948;2024-01-25T09:54:51;3.65;;;2.67;;
64832;SDS011;51290;45.060;38.948;2024-01-25T09:57:22;4.28;;;2.78;;
64832;SDS011;51290;45.060;38.948;2024-01-25T09:59:52;5.32;;;2.60;;
64832;SDS011;51290;45.060;38.948;2024-01-25T10:02:20;4.22;;;2.70;;
64832;SDS011;51290;45.060;38.948;2024-01-25T10:04:49;4.78;;;2.38;;
64832;SDS011;51290;45.060;38.948;2024-01-25T10:10:07;2.85;;;2.25;;
64832;SDS011;51290;45.060;38.948;2024-01-25T10:12:34;4.88;;;3.65;;
64832;SDS011;51290;45.060;38.948;2024-01-25T10:15:00;2.80;;;2.08;;
64832;SDS011;51290;45.060;38.948;2024-01-25T10:17:28;2.35;;;2.10;;
64832;SDS011;51290;45.060;38.948;2024-01-25T10:19:55;2.95;;;1.85;;
64832;SDS011;51290;45.060;38.948;2024-01-25T10:22:21;3.47;;;2.15;;
64832;SDS011;51290;45.060;38.948;2024-01-25T10:24:47;2.17;;;1.90;;
64832;SDS011;51290;45.060;38.948;2024-01-25T10:27:16;3.67;;;2.47;;
64832;SDS011;51290;45.060;38.948;2024-01-25T10:29:42;6.57;;;3.03;;
64832;SDS011;51290;45.060;38.948;2024-01-25T10:32:08;2.90;;;2.03;;
64832;SDS011;51290;45.060;38.948;2024-01-25T10:34:35;4.15;;;2.67;;
64832;SDS011;51290;45.060;38.948;2024-01-25T10:37:05;4.07;;;1.98;;
64832;SDS011;51290;45.060;38.948;2024-01-25T10:39:32;1.60;;;1.50;;
64832;SDS011;51290;45.060;38.948;2024-01-25T10:41:59;1.92;;;1.75;;
64832;SDS011;51290;45.060;38.948;2024-01-25T10:44:25;2.28;;;1.77;;
64832;SDS011;51290;45.060;38.948;2024-01-25T10:46:52;2.45;;;2.00;;
64832;SDS011;51290;45.060;38.948;2024-01-25T10:49:19;4.18;;;2.45;;
64832;SDS011;51290;45.060;38.948;2024-01-25T10:51:46;1.60;;;1.50;;
64832;SDS011;51290;45.060;38.948;2024-01-25T10:54:13;2.20;;;1.73;;
64832;SDS011;51290;45.060;38.948;2024-01-25T10:56:43;1.45;;;1.35;;
64832;SDS011;51290;45.060;38.948;2024-01-25T10:59:11;10.85;;;2.88;;
64832;SDS011;51290;45.060;38.948;2024-01-25T11:01:37;1.60;;;1.45;;
64832;SDS011;51290;45.060;38.948;2024-01-25T11:04:11;2.28;;;1.70;;
64832;SDS011;51290;45.060;38.948;2024-01-25T11:06:44;3.65;;;2.47;;
64832;SDS011;51290;45.060;38.948;2024-01-25T11:09:16;3.88;;;2.83;;
64832;SDS011;51290;45.060;38.948;2024-01-25T11:11:45;2.33;;;1.88;;
64832;SDS011;51290;45.060;38.948;2024-01-25T11:14:13;2.08;;;1.90;;
64832;SDS011;51290;45.060;38.948;2024-01-25T11:16:42;2.47;;;1.95;;
64832;SDS011;51290;45.060;38.948;2024-01-25T11:19:19;2.35;;;2.13;;
64832;SDS011;51290;45.060;38.948;2024-01-25T11:21:46;4.05;;;2.25;;
64832;SDS011;51290;45.060;38.948;2024-01-25T11:24:16;4.97;;;2.70;;
64832;SDS011;51290;45.060;38.948;2024-01-25T11:26:42;3.20;;;2.22;;
64832;SDS011;51290;45.060;38.948;2024-01-25T11:29:10;4.35;;;1.92;;
64832;SDS011;51290;45.060;38.948;2024-01-25T11:31:44;10.30;;;2.55;;
64832;SDS011;51290;45.060;38.948;2024-01-25T11:34:11;1.95;;;1.85;;
64832;SDS011;51290;45.060;38.948;2024-01-25T11:36:38;3.58;;;1.95;;
64832;SDS011;51290;45.060;38.948;2024-01-25T11:39:04;2.25;;;1.75;;
64832;SDS011;51290;45.060;38.948;2024-01-25T11:41:32;4.72;;;2.40;;
64832;SDS011;51290;45.060;38.948;2024-01-25T11:43:58;2.65;;;2.03;;
64832;SDS011;51290;45.060;38.948;2024-01-25T11:46:24;2.00;;;1.70;;
64832;SDS011;51290;45.060;38.948;2024-01-25T11:48:51;1.40;;;1.30;;
64832;SDS011;51290;45.060;38.948;2024-01-25T11:51:17;2.78;;;1.73;;
64832;SDS011;51290;45.060;38.948;2024-01-25T11:53:43;2.38;;;1.65;;
64832;SDS011;51290;45.060;38.948;2024-01-25T11:56:10;2.55;;;1.63;;
64832;SDS011;51290;45.060;38.948;2024-01-25T11:58:38;9.82;;;2.28;;
64832;SDS011;51290;45.060;38.948;2024-01-25T12:01:05;1.70;;;1.60;;
64832;SDS011;51290;45.060;38.948;2024-01-25T12:03:36;3.25;;;2.40;;
64832;SDS011;51290;45.060;38.948;2024-01-25T12:06:03;2.35;;;1.75;;
64832;SDS011;51290;45.060;38.948;2024-01-25T12:08:31;3.58;;;2.05;;
64832;SDS011;51290;45.060;38.948;2024-01-25T12:11:05;2.17;;;1.95;;
64832;SDS011;51290;45.060;38.948;2024-01-25T12:13:33;7.70;;;5.88;;
64832;SDS011;51290;45.060;38.948;2024-01-25T12:16:05;3.17;;;1.90;;
64832;SDS011;51290;45.060;38.948;2024-01-25T12:18:31;3.75;;;2.58;;
64832;SDS011;51290;45.060;38.948;2024-01-25T12:20:58;3.10;;;2.17;;
64832;SDS011;51290;45.060;38.948;2024-01-25T12:23:38;5.40;;;2.30;;
64832;SDS011;51290;45.060;38.948;2024-01-25T12:26:06;2.67;;;2.22;;
64832;SDS011;51290;45.060;38.948;2024-01-25T12:28:32;3.15;;;2.20;;
64832;SDS011;51290;45.060;38.948;2024-01-25T12:30:59;3.20;;;2.45;;
64832;SDS011;51290;45.060;38.948;2024-01-25T12:33:26;4.82;;;2.95;;
64832;SDS011;51290;45.060;38.948;2024-01-25T12:35:52;8.10;;;5.18;;
64832;SDS011;51290;45.060;38.948;2024-01-25T12:38:24;5.35;;;2.70;;
64832;SDS011;51290;45.060;38.948;2024-01-25T12:40:51;6.65;;;4.18;;
64832;SDS011;51290;45.060;38.948;2024-01-25T12:43:21;4.05;;;2.90;;
64832;SDS011;51290;45.060;38.948;2024-01-25T12:45:47;4.22;;;2.58;;
64832;SDS011;51290;45.060;38.948;2024-01-25T12:48:13;3.58;;;2.35;;
64832;SDS011;51290;45.060;38.948;2024-01-25T12:50:39;2.58;;;2.10;;
64832;SDS011;51290;45.060;38.948;2024-01-25T12:53:05;2.67;;;1.98;;
64832;SDS011;51290;45.060;38.948;2024-01-25T12:55:32;2.75;;;2.20;;
64832;SDS011;51290;45.060;38.948;2024-01-25T12:57:58;4.47;;;2.58;;
64832;SDS011;51290;45.060;38.948;2024-01-25T13:00:25;4.78;;;2.65;;
64832;SDS011;51290;45.060;38.948;2024-01-25T13:02:51;3.72;;;2.40;;
64832;SDS011;51290;45.060;38.948;2024-01-25T13:05:18;6.13;;;2.20;;
64832;SDS011;51290;45.060;38.948;2024-01-25T13:07:44;2.85;;;2.05;;
64832;SDS011;51290;45.060;38.948;2024-01-25T13:10:11;3.15;;;1.98;;
64832;SDS011;51290;45.060;38.948;2024-01-25T13:12:37;2.10;;;1.80;;
64832;SDS011;51290;45.060;38.948;2024-01-25T13:15:04;1.63;;;1.52;;
64832;SDS011;51290;45.060;38.948;2024-01-25T13:17:31;1.92;;;1.70;;
64832;SDS011;51290;45.060;38.948;2024-01-25T13:19:57;1.60;;;1.50;;
64832;SDS011;51290;45.060;38.948;2024-01-25T13:22:23;1.77;;;1.65;;
64832;SDS011;51290;45.060;38.948;2024-01-25T13:24:50;2.20;;;1.55;;
64832;SDS011;51290;45.060;38.948;2024-01-25T13:27:16;1.73;;;1.63;;
64832;SDS011;51290;45.060;38.948;2024-01-25T13:29:42;2.03;;;1.55;;
64832;SDS011;51290;45.060;38.948;2024-01-25T13:32:08;1.55;;;1.45;;
64832;SDS011;51290;45.060;38.948;2024-01-25T13:34:34;1.70;;;1.50;;
64832;SDS011;51290;45.060;38.948;2024-01-25T13:37:01;2.80;;;1.83;;
64832;SDS011;51290;45.060;38.948;2024-01-25T13:39:27;2.00;;;1.83;;
64832;SDS011;51290;45.060;38.948;2024-01-25T13:41:54;2.10;;;1.83;;
64832;SDS011;51290;45.060;38.948;2024-01-25T13:44:21;2.55;;;1.60;;
64832;SDS011;51290;45.060;38.948;2024-01-25T13:46:48;3.70;;;1.60;;
64832;SDS011;51290;45.060;38.948;2024-01-25T13:49:15;4.57;;;3.45;;
64832;SDS011;51290;45.060;38.948;2024-01-25T13:51:41;2.53;;;1.23;;
64832;SDS011;51290;45.060;38.948;2024-01-25T13:54:08;1.35;;;1.25;;
64832;SDS011;51290;45.060;38.948;2024-01-25T13:56:34;2.65;;;1.25;;
64832;SDS011;51290;45.060;38.948;2024-01-25T13:59:00;2.35;;;1.73;;
64832;SDS011;51290;45.060;38.948;2024-01-25T14:01:26;1.60;;;1.50;;
64832;SDS011;51290;45.060;38.948;2024-01-25T14:03:52;1.67;;;1.55;;
64832;SDS011;51290;45.060;38.948;2024-01-25T14:06:18;2.72;;;1.48;;
64832;SDS011;51290;45.060;38.948;2024-01-25T14:08:44;1.67;;;1.58;;
64832;SDS011;51290;45.060;38.948;2024-01-25T14:11:10;1.30;;;1.20;;
64832;SDS011;51290;45.060;38.948;2024-01-25T14:13:36;1.58;;;1.48;;
64832;SDS011;51290;45.060;38.948;2024-01-25T14:16:02;2.15;;;1.48;;
64832;SDS011;51290;45.060;38.948;2024-01-25T14:18:29;1.45;;;0.95;;
64832;SDS011;51290;45.060;38.948;2024-01-25T14:21:01;1.15;;;1.13;;
64832;SDS011;51290;45.060;38.948;2024-01-25T14:23:27;0.75;;;0.75;;
64832;SDS011;51290;45.060;38.948;2024-01-25T14:25:53;1.52;;;1.23;;